Terminal Aerodrome Forecast
Issued by NWS

Home | Current Version | Previous Version | Text Only | Print | Product List | Glossary On
Versions: 1 2 3 4 5 6 7 8 9 10 11 12 13
000
FTUS45 KRIW 200521
TAFPNA
TAF
KPNA 200521Z 2006/2106 30006KT P6SM SCT200
     FM201900 29008KT P6SM VCSH SCT020 BKN035
     FM202200 29009KT 5SM -SN SCT010 BKN020
      AMD LTD TO CLD VIS AND WIND=

USA.gov is the U.S. government's official web portal to all federal, state and local government web resources and services.